M I D A S
Marine Information and Data Acquisition System
Tripno 444 of the Zeeleeuw from 2003-03-11 07:39:54 to 2003-03-11 13:04:54
Back to CruiseResearch ActivitiesStationsMapUnderway DataData graphs

EquipmentUnitsComment
TimeDGPSUTC
LatitudeDGPSDM.mWGS84
LongitudeDGPSDM.mWGS84
HeadingGyrodeg 
SOGDGPSknotsSpeed over ground
COGDGPSdegCourse over ground
DepthEcho soundermeters200 kHz
Missing or incorrect values are displayed as -999
Navigation data collected by the RV Zeeleeuw from 2003-03-11 07:39:54 to 2003-03-11 13:04:54
                                                                                    Next 1000 lines
Time Latitude Longitude Heading SOG COG Depth
2003-03-11 07:40:04 51°13.592 2°56.102 110.2 0.1 205 7.1
2003-03-11 07:40:08 51°13.592 2°56.101 109.3 0.1 245 7.1
2003-03-11 07:40:14 51°13.592 2°56.1 108.9 0.2 276 7.1
2003-03-11 07:40:19 51°13.592 2°56.099 108.8 0.5 288 7.1
2003-03-11 07:40:24 51°13.592 2°56.097 109.1 0.9 285 7.1
2003-03-11 07:40:28 51°13.593 2°56.094 109.5 1.3 292 7.8
2003-03-11 07:40:34 51°13.594 2°56.089 110.1 1.7 291 8.9
2003-03-11 07:40:39 51°13.595 2°56.083 111.1 2.5 290 -999
2003-03-11 07:40:44 51°13.596 2°56.077 112 3 290 -999
2003-03-11 07:40:50 51°13.599 2°56.068 112.6 3.4 291 -999
2003-03-11 07:40:54 51°13.601 2°56.062 113.2 3.7 292 -999
2003-03-11 07:41:00 51°13.603 2°56.052 113.8 4 293 -999
2003-03-11 07:41:04 51°13.605 2°56.045 114.1 4.2 292 -999
2003-03-11 07:41:10 51°13.607 2°56.034 114.6 4.4 292 -999
2003-03-11 07:41:14 51°13.609 2°56.026 115.1 4.5 292 -999
2003-03-11 07:41:20 51°13.612 2°56.015 115.4 4.7 292 -999
2003-03-11 07:41:24 51°13.614 2°56.007 115.9 4.8 292 -999
2003-03-11 07:41:30 51°13.618 2°55.994 116.6 4.9 293 -999
2003-03-11 07:41:34 51°13.62 2°55.986 117.5 4.9 294 -999
2003-03-11 07:41:40 51°13.624 2°55.973 118.3 5 294 -999
2003-03-11 07:41:44 51°13.627 2°55.965 119.1 5.1 294 -999
2003-03-11 07:41:50 51°13.631 2°55.952 120.2 5.1 295 -999
2003-03-11 07:41:54 51°13.633 2°55.944 121.1 5.2 296 -999
2003-03-11 07:42:00 51°13.637 2°55.932 121.9 5.2 298 -999
2003-03-11 07:42:04 51°13.64 2°55.924 122.8 5.2 299 -999
2003-03-11 07:42:10 51°13.644 2°55.912 123.5 5.3 299 -999
2003-03-11 07:42:14 51°13.647 2°55.904 123.9 5.4 300 -999
2003-03-11 07:42:20 51°13.651 2°55.891 124.1 5.5 301 -999
2003-03-11 07:42:24 51°13.654 2°55.883 124.1 5.6 301 -999
2003-03-11 07:42:30 51°13.659 2°55.87 124.1 5.6 301 -999
2003-03-11 07:42:34 51°13.662 2°55.861 123.7 5.6 301 -999
2003-03-11 07:42:40 51°13.668 2°55.848 123.1 5.6 301 -999
2003-03-11 07:42:44 51°13.671 2°55.84 122.3 5.5 301 -999
2003-03-11 07:42:50 51°13.675 2°55.828 121.4 5.3 301 -999
2003-03-11 07:42:54 51°13.678 2°55.821 120.6 5.1 300 -999
2003-03-11 07:43:00 51°13.681 2°55.809 120.2 4.8 299 -999
2003-03-11 07:43:04 51°13.684 2°55.803 119.6 4.6 299 5.4
2003-03-11 07:43:08 51°13.686 2°55.796 119.1 4.4 298 -999
2003-03-11 07:43:14 51°13.689 2°55.787 118.3 4 298 12.2
2003-03-11 07:43:19 51°13.691 2°55.781 116.4 3.3 298 12.3
2003-03-11 07:43:24 51°13.692 2°55.776 114.2 3 298 12.4
2003-03-11 07:43:28 51°13.694 2°55.772 111.9 2.6 297 12.4
2003-03-11 07:43:34 51°13.695 2°55.767 109.4 2.4 296 12.4
2003-03-11 07:43:39 51°13.696 2°55.763 106.7 2 296 12.5
2003-03-11 07:43:44 51°13.697 2°55.76 103.6 1.7 295 12.5
2003-03-11 07:43:48 51°13.697 2°55.758 100 1.4 297 12.5
2003-03-11 07:43:52 51°13.698 2°55.757 96 1.1 299 12.5
2003-03-11 07:43:58 51°13.698 2°55.755 92 0.8 306 12.5
2003-03-11 07:44:04 51°13.699 2°55.755 87.8 0.5 323 12.5
2003-03-11 07:44:09 51°13.7 2°55.755 83.4 0.5 347 12.5
2003-03-11 07:44:14 51°13.701 2°55.756 78.6 0.6 19 12.5
2003-03-11 07:44:19 51°13.701 2°55.757 73.5 0.7 33 12.5
2003-03-11 07:44:24 51°13.703 2°55.758 68.2 0.9 40 12.5
2003-03-11 07:44:28 51°13.704 2°55.76 63.1 1 42 12.4
2003-03-11 07:44:34 51°13.705 2°55.761 59.1 1 40 12.4
2003-03-11 07:44:39 51°13.706 2°55.762 56.1 0.9 35 12.4
2003-03-11 07:44:43 51°13.707 2°55.762 53 0.5 24 12.4
2003-03-11 07:44:48 51°13.707 2°55.762 50.4 0.3 344 12.4
2003-03-11 07:44:54 51°13.707 2°55.761 48.1 0.3 278 12.4
2003-03-11 07:44:59 51°13.706 2°55.759 46.3 0.6 243 12.4
2003-03-11 07:45:04 51°13.705 2°55.757 45 1 234 12.4
2003-03-11 07:45:08 51°13.704 2°55.755 43.9 1.2 231 12.5
2003-03-11 07:45:14 51°13.702 2°55.752 42.9 1.4 229 -999
2003-03-11 07:45:20 51°13.7 2°55.749 41.9 1.5 228 -999
2003-03-11 07:45:24 51°13.699 2°55.748 40.9 1.5 228 -999
2003-03-11 07:45:30 51°13.697 2°55.745 39.8 1.4 228 -999
2003-03-11 07:45:34 51°13.696 2°55.744 38.4 1.2 229 -999
2003-03-11 07:45:40 51°13.696 2°55.742 36.4 0.9 230 -999
2003-03-11 07:45:44 51°13.695 2°55.741 33.6 0.6 237 -999
2003-03-11 07:45:48 51°13.696 2°55.739 30 0.4 263 12.5
2003-03-11 07:45:54 51°13.698 2°55.737 26.7 0.3 305 4.8
2003-03-11 07:45:59 51°13.699 2°55.736 23.1 0.5 341 4.8
2003-03-11 07:46:04 51°13.701 2°55.736 18.1 0.7 352 -999
2003-03-11 07:46:09 51°13.702 2°55.736 12.6 1.1 355 4.9
2003-03-11 07:46:14 51°13.704 2°55.737 5.3 1.5 355 5.3
2003-03-11 07:46:19 51°13.706 2°55.736 359.9 2 351 5.1
2003-03-11 07:46:24 51°13.709 2°55.735 353.1 2.3 346 5.4
2003-03-11 07:46:29 51°13.713 2°55.733 346.9 2.7 341 6.2
2003-03-11 07:46:34 51°13.717 2°55.73 341.4 3.1 336 11.7
2003-03-11 07:46:39 51°13.721 2°55.727 338.1 3.5 333 11.2
2003-03-11 07:46:43 51°13.725 2°55.723 336.3 3.9 332 11.1
2003-03-11 07:46:48 51°13.73 2°55.719 335.4 4.2 331 11
2003-03-11 07:46:54 51°13.737 2°55.712 335.2 4.7 331 10.9
2003-03-11 07:46:59 51°13.743 2°55.707 335.2 5.1 331 11
2003-03-11 07:47:04 51°13.75 2°55.701 335.2 5.4 331 11
2003-03-11 07:47:08 51°13.755 2°55.695 335.5 5.7 331 10.9
2003-03-11 07:47:14 51°13.764 2°55.688 335.5 5.9 331 10.8
2003-03-11 07:47:19 51°13.772 2°55.681 335.3 6.3 331 11.1
2003-03-11 07:47:24 51°13.78 2°55.674 335.1 6.4 331 11.1
2003-03-11 07:47:28 51°13.786 2°55.668 335 6.6 330 11.1
2003-03-11 07:47:34 51°13.796 2°55.659 334.9 6.7 330 11.1
2003-03-11 07:47:39 51°13.804 2°55.651 335.2 6.9 330 11.1
2003-03-11 07:47:44 51°13.814 2°55.642 335.3 7 330 11.1
2003-03-11 07:47:49 51°13.823 2°55.634 335.4 7.1 331 11.1
2003-03-11 07:47:54 51°13.832 2°55.626 335.5 7.2 331 11
2003-03-11 07:47:58 51°13.839 2°55.62 335.8 7.3 331 10.9
2003-03-11 07:48:04 51°13.85 2°55.611 336.2 7.4 331 10.8
2003-03-11 07:48:08 51°13.857 2°55.606 336.7 7.5 332 10.8
2003-03-11 07:48:12 51°13.866 2°55.599 337 7.5 332 10.8
2003-03-11 07:48:18 51°13.877 2°55.59 337.2 7.6 333 10.9
2003-03-11 07:48:23 51°13.886 2°55.583 337.5 7.7 333 10.8
2003-03-11 07:48:28 51°13.895 2°55.575 337.6 7.8 334 10.8
2003-03-11 07:48:33 51°13.904 2°55.568 337.6 7.8 333 10.9
2003-03-11 07:48:39 51°13.915 2°55.558 338.1 7.7 333 10.8
2003-03-11 07:48:44 51°13.925 2°55.551 338.2 7.8 333 10.8
2003-03-11 07:48:49 51°13.934 2°55.544 337.7 7.8 333 10.8
2003-03-11 07:48:54 51°13.944 2°55.536 337.6 7.8 333 10.7
2003-03-11 07:48:59 51°13.953 2°55.529 337.7 7.9 333 10.7
2003-03-11 07:49:04 51°13.963 2°55.522 337.8 7.9 333 10.7
2003-03-11 07:49:09 51°13.973 2°55.515 337.8 7.8 333 10.8
2003-03-11 07:49:14 51°13.982 2°55.508 338.1 7.8 333 10.7
2003-03-11 07:49:19 51°13.992 2°55.5 338.1 7.8 334 10.7
2003-03-11 07:49:24 51°14.002 2°55.492 338.2 7.8 333 10.7
2003-03-11 07:49:28 51°14.01 2°55.485 338.5 7.9 334 10.7
2003-03-11 07:49:32 51°14.018 2°55.478 338.6 7.9 334 10.7
2003-03-11 07:49:39 51°14.032 2°55.467 338.7 7.9 334 10.7
2003-03-11 07:49:44 51°14.041 2°55.46 339 7.9 334 10.7
2003-03-11 07:49:49 51°14.051 2°55.453 339.1 7.9 334 10.8
2003-03-11 07:49:54 51°14.06 2°55.445 339.3 7.9 334 10.8
2003-03-11 07:49:58 51°14.068 2°55.439 339.3 7.9 334 10.7
2003-03-11 07:50:04 51°14.08 2°55.43 339 7.9 335 10.6
2003-03-11 07:50:09 51°14.09 2°55.422 338.9 7.9 335 10.5
2003-03-11 07:50:14 51°14.1 2°55.414 338.9 7.9 334 10.7
2003-03-11 07:50:19 51°14.11 2°55.407 338.9 7.9 334 10.6
2003-03-11 07:50:24 51°14.119 2°55.4 338.8 7.9 334 11.1
2003-03-11 07:50:28 51°14.127 2°55.393 338.8 7.9 334 11.1
2003-03-11 07:50:33 51°14.137 2°55.386 339 7.9 334 11.1
2003-03-11 07:50:39 51°14.15 2°55.377 339 7.9 334 11
2003-03-11 07:50:44 51°14.159 2°55.369 338.9 7.9 334 11.1
2003-03-11 07:50:48 51°14.167 2°55.363 338.2 7.9 333 11.2
2003-03-11 07:50:54 51°14.178 2°55.354 337.1 7.8 333 11.3
2003-03-11 07:50:59 51°14.187 2°55.346 335.7 7.5 332 11.4
2003-03-11 07:51:04 51°14.196 2°55.337 334.5 7.4 330 11.7
2003-03-11 07:51:08 51°14.203 2°55.33 332.7 7.3 329 11.6
2003-03-11 07:51:14 51°14.213 2°55.32 331 7.2 327 11.5
2003-03-11 07:51:19 51°14.221 2°55.311 330 7.1 326 11.3
2003-03-11 07:51:24 51°14.228 2°55.302 328.3 7 324 11.5
2003-03-11 07:51:28 51°14.234 2°55.295 327.3 7 323 11.5
2003-03-11 07:51:34 51°14.243 2°55.284 325.7 6.9 323 11.4
2003-03-11 07:51:39 51°14.251 2°55.274 324.5 6.9 321 11.4
2003-03-11 07:51:44 51°14.258 2°55.264 322.9 7 320 11.4
2003-03-11 07:51:48 51°14.264 2°55.255 320.4 7.2 318 11.3
2003-03-11 07:51:53 51°14.271 2°55.243 318.8 7.5 316 11.4
2003-03-11 07:51:58 51°14.279 2°55.231 316.6 7.7 314 11.3
2003-03-11 07:52:04 51°14.288 2°55.214 315.2 8 312 11.3
2003-03-11 07:52:09 51°14.295 2°55.2 314.3 8.1 310 11.3
2003-03-11 07:52:14 51°14.303 2°55.185 314 8.3 310 11.3
2003-03-11 07:52:19 51°14.31 2°55.17 313.7 8.4 309 11.3
2003-03-11 07:52:24 51°14.318 2°55.155 313.3 8.6 309 11.3
2003-03-11 07:52:28 51°14.324 2°55.143 312.6 8.7 309 11.3
2003-03-11 07:52:34 51°14.333 2°55.125 312 8.8 308 11.3
2003-03-11 07:52:38 51°14.339 2°55.113 311.1 8.9 307 10.6
2003-03-11 07:52:43 51°14.346 2°55.097 310.6 9 307 10.9
2003-03-11 07:52:48 51°14.353 2°55.08 310.2 9 306 11.2
2003-03-11 07:52:54 51°14.362 2°55.06 310 9.1 306 11.5
2003-03-11 07:52:59 51°14.369 2°55.044 310 9.2 305 11.4
2003-03-11 07:53:04 51°14.376 2°55.027 309.1 9.3 305 11.3
2003-03-11 07:53:08 51°14.382 2°55.013 307.3 9.4 304 11.3
2003-03-11 07:53:14 51°14.392 2°54.991 305.6 9.5 302 11.4
2003-03-11 07:53:19 51°14.398 2°54.973 303.3 9.5 300 11.3
2003-03-11 07:53:23 51°14.403 2°54.958 300.8 9.5 298 11.5
2003-03-11 07:53:28 51°14.409 2°54.939 297.8 9.5 296 11.6
2003-03-11 07:53:34 51°14.415 2°54.916 295.7 9.5 293 11.7
2003-03-11 07:53:39 51°14.419 2°54.897 293.2 9.5 291 11.7
2003-03-11 07:53:44 51°14.423 2°54.877 290.3 9.4 288 11.5
2003-03-11 07:53:48 51°14.425 2°54.861 287.5 9.4 285 11.3
2003-03-11 07:53:54 51°14.429 2°54.837 284.7 9.4 283 11.6
2003-03-11 07:53:59 51°14.43 2°54.817 281.6 9.3 279 11.5
2003-03-11 07:54:04 51°14.432 2°54.797 278.7 9.3 277 11.3
2003-03-11 07:54:08 51°14.433 2°54.781 275.8 9.2 274 11.2
2003-03-11 07:54:14 51°14.432 2°54.757 272.7 9.2 272 11
2003-03-11 07:54:19 51°14.431 2°54.737 269.7 9.2 268 11.6
2003-03-11 07:54:24 51°14.43 2°54.717 266.8 9.2 266 11.7
2003-03-11 07:54:29 51°14.428 2°54.697 264.4 9.2 263 11.6
2003-03-11 07:54:34 51°14.426 2°54.677 262.7 9.1 261 11.3
2003-03-11 07:54:39 51°14.424 2°54.658 261.6 8.9 260 11.5
2003-03-11 07:54:43 51°14.422 2°54.644 260.5 8.5 259 11.6
2003-03-11 07:54:49 51°14.419 2°54.623 259.6 8.1 258 11.6
2003-03-11 07:54:54 51°14.416 2°54.608 258.1 7.7 256 11.8
2003-03-11 07:54:59 51°14.413 2°54.593 256.5 7.4 254 11.8
2003-03-11 07:55:04 51°14.41 2°54.579 254.7 7.1 251 11.9
2003-03-11 07:55:08 51°14.408 2°54.569 252.7 6.6 249 11.8
2003-03-11 07:55:14 51°14.405 2°54.555 250.4 6.1 249 11.8
2003-03-11 07:55:19 51°14.401 2°54.545 247.5 5.6 246 11.8
2003-03-11 07:55:24 51°14.398 2°54.535 244.7 5.2 244 11.6
2003-03-11 07:55:28 51°14.395 2°54.528 241.6 5 240 11.4
2003-03-11 07:55:34 51°14.391 2°54.518 238.7 4.9 237 11.2
2003-03-11 07:55:39 51°14.388 2°54.511 235.7 4.5 233 11.1
2003-03-11 07:55:44 51°14.384 2°54.505 232.9 4.2 230 10.6
2003-03-11 07:55:48 51°14.381 2°54.5 230.3 3.9 228 10.5
2003-03-11 07:55:54 51°14.376 2°54.493 227.9 3.7 225 10.6
2003-03-11 07:55:58 51°14.374 2°54.489 225.6 3.5 223 10.6
2003-03-11 07:56:04 51°14.369 2°54.484 223.4 3.4 220 10.5
2003-03-11 07:56:08 51°14.367 2°54.48 220.9 3.2 218 10.6
2003-03-11 07:56:12 51°14.364 2°54.477 219.1 3 215 10.5
2003-03-11 07:56:18 51°14.359 2°54.474 216.8 2.9 212 10.5
2003-03-11 07:56:23 51°14.356 2°54.471 215.1 2.7 208 10.5
2003-03-11 07:56:28 51°14.352 2°54.469 213 2.6 206 10.4
2003-03-11 07:56:34 51°14.349 2°54.466 210.9 2.5 203 10.4
2003-03-11 07:56:39 51°14.346 2°54.464 209 2.4 200 10.2
2003-03-11 07:56:44 51°14.343 2°54.463 207.3 2.3 198 10.3
2003-03-11 07:56:49 51°14.34 2°54.462 206.1 2.2 195 10.3
2003-03-11 07:56:54 51°14.337 2°54.461 205 2.2 193 10.3
2003-03-11 07:56:59 51°14.334 2°54.46 204.3 2.2 191 10.2
2003-03-11 07:57:04 51°14.331 2°54.459 204.1 2.1 190 10.2
2003-03-11 07:57:09 51°14.329 2°54.458 204.2 2.1 188 10.3
2003-03-11 07:57:14 51°14.326 2°54.458 204.6 2 189 10.2
2003-03-11 07:57:19 51°14.324 2°54.456 204.8 2 190 10.2
2003-03-11 07:57:24 51°14.321 2°54.456 205.5 1.9 189 10.2
2003-03-11 07:57:29 51°14.319 2°54.455 206.1 1.9 189 10.2
2003-03-11 07:57:34 51°14.316 2°54.454 206.8 1.9 189 10.1
2003-03-11 07:57:39 51°14.314 2°54.454 207.5 1.9 189 10.1
2003-03-11 07:57:44 51°14.311 2°54.453 208.7 1.8 191 10.2
2003-03-11 07:57:48 51°14.309 2°54.453 209.7 1.8 192 10.1
2003-03-11 07:57:54 51°14.306 2°54.451 211.1 1.8 194 10.1
2003-03-11 07:57:58 51°14.304 2°54.45 212.4 1.7 196 10.2
2003-03-11 07:58:03 51°14.302 2°54.45 213.5 1.8 196 10
2003-03-11 07:58:08 51°14.299 2°54.449 215.1 1.8 198 10.1
2003-03-11 07:58:14 51°14.296 2°54.447 216.3 1.8 200 10.1
2003-03-11 07:58:18 51°14.294 2°54.446 217.9 1.7 202 10
2003-03-11 07:58:24 51°14.292 2°54.444 219.3 1.6 205 10
2003-03-11 07:58:28 51°14.29 2°54.443 221.1 1.6 206 10
2003-03-11 07:58:32 51°14.289 2°54.441 222.2 1.6 207 10
2003-03-11 07:58:38 51°14.286 2°54.439 223.8 1.6 210 10
2003-03-11 07:58:43 51°14.285 2°54.437 225.3 1.6 212 9.9
2003-03-11 07:58:49 51°14.283 2°54.435 226.7 1.6 214 10
2003-03-11 07:58:54 51°14.281 2°54.433 228.2 1.6 215 10
2003-03-11 07:58:59 51°14.279 2°54.431 229.6 1.6 217 9.9
2003-03-11 07:59:04 51°14.277 2°54.428 231.3 1.5 220 9.9
2003-03-11 07:59:08 51°14.276 2°54.426 233.1 1.5 223 9.9
2003-03-11 07:59:14 51°14.274 2°54.423 234.7 1.5 224 9.9
2003-03-11 07:59:19 51°14.273 2°54.421 236.6 1.6 225 9.9
2003-03-11 07:59:24 51°14.271 2°54.419 238.2 1.6 229 9.9
2003-03-11 07:59:28 51°14.27 2°54.416 240.1 1.5 232 9.9
2003-03-11 07:59:34 51°14.269 2°54.412 242.1 1.5 234 9.9
2003-03-11 07:59:39 51°14.268 2°54.409 243.9 1.6 237 10
2003-03-11 07:59:44 51°14.267 2°54.406 246 1.6 240 10
2003-03-11 07:59:49 51°14.266 2°54.403 248.2 1.6 245 10
2003-03-11 07:59:54 51°14.265 2°54.399 250.2 1.6 247 10
2003-03-11 07:59:59 51°14.265 2°54.396 252.2 1.6 249 9.9
2003-03-11 08:00:04 51°14.264 2°54.393 254.5 1.6 251 9.9
2003-03-11 08:00:08 51°14.263 2°54.39 256.7 1.6 255 10
2003-03-11 08:00:14 51°14.263 2°54.386 258.9 1.6 258 9.9
2003-03-11 08:00:19 51°14.263 2°54.382 260.9 1.6 260 9.9
2003-03-11 08:00:24 51°14.262 2°54.379 262.7 1.6 262 9.9
2003-03-11 08:00:28 51°14.262 2°54.376 264.1 1.6 264 10
2003-03-11 08:00:34 51°14.262 2°54.371 264.9 1.8 265 10
2003-03-11 08:00:38 51°14.261 2°54.365 264.1 2.6 263 9.9
2003-03-11 08:00:44 51°14.26 2°54.356 261.2 3.4 260 9.9
2003-03-11 08:00:49 51°14.258 2°54.345 257.3 4 257 9.8
2003-03-11 08:00:54 51°14.256 2°54.334 252.2 5.1 251 9.8
2003-03-11 08:00:58 51°14.253 2°54.324 247.2 5.9 246 9.9
2003-03-11 08:01:04 51°14.247 2°54.307 244.5 6.8 243 9.8
2003-03-11 08:01:08 51°14.243 2°54.295 244.1 7.7 241 9.8
2003-03-11 08:01:14 51°14.236 2°54.275 244.8 8.2 241 9.8
2003-03-11 08:01:19 51°14.229 2°54.257 245 9 241 9.8
2003-03-11 08:01:24 51°14.223 2°54.238 244.9 9.4 241 9.8
2003-03-11 08:01:29 51°14.216 2°54.219 244.5 9.9 241 9.8
2003-03-11 08:01:34 51°14.209 2°54.199 244.3 10.2 241 9.7
2003-03-11 08:01:39 51°14.202 2°54.178 244.5 10.5 241 9.7
2003-03-11 08:01:44 51°14.195 2°54.157 244.1 10.7 241 9.8
2003-03-11 08:01:48 51°14.189 2°54.141 243.8 10.9 241 9.7
2003-03-11 08:01:54 51°14.18 2°54.115 243.6 11 240 9.7
2003-03-11 08:01:58 51°14.173 2°54.098 243.4 11.1 240 9.8
2003-03-11 08:02:03 51°14.166 2°54.077 243.4 11.2 240 9.7
2003-03-11 08:02:08 51°14.158 2°54.055 243.4 11.3 240 9.7
2003-03-11 08:02:14 51°14.148 2°54.029 243.6 11.4 240 9.8
2003-03-11 08:02:19 51°14.141 2°54.007 243.5 11.4 240 9.8
2003-03-11 08:02:24 51°14.133 2°53.985 243.6 11.4 240 9.7
2003-03-11 08:02:28 51°14.126 2°53.967 243.7 11.5 240 9.7
2003-03-11 08:02:34 51°14.117 2°53.94 243.8 11.5 240 9.7
2003-03-11 08:02:38 51°14.11 2°53.922 243.8 11.6 240 9.7
2003-03-11 08:02:44 51°14.101 2°53.896 243.8 11.6 240 9.8
2003-03-11 08:02:49 51°14.093 2°53.874 243.9 11.6 240 9.7
2003-03-11 08:02:54 51°14.085 2°53.851 243.8 11.6 240 9.8
2003-03-11 08:02:58 51°14.078 2°53.833 243.6 11.7 240 9.8
2003-03-11 08:03:04 51°14.069 2°53.806 243.4 11.7 240 9.8
2003-03-11 08:03:08 51°14.062 2°53.788 243.4 11.7 240 9.8
2003-03-11 08:03:14 51°14.052 2°53.761 243.8 11.7 240 9.7
2003-03-11 08:03:18 51°14.046 2°53.743 244.2 11.7 241 9.8
2003-03-11 08:03:24 51°14.036 2°53.716 244.3 11.7 241 9.8
2003-03-11 08:03:28 51°14.029 2°53.698 243.8 11.7 240 9.8
2003-03-11 08:03:33 51°14.021 2°53.675 243.9 11.7 241 9.8
2003-03-11 08:03:39 51°14.011 2°53.648 243.8 11.7 240 9.8
2003-03-11 08:03:44 51°14.004 2°53.625 243.8 11.7 240 9.9
2003-03-11 08:03:48 51°13.997 2°53.607 243.8 11.7 240 9.8
2003-03-11 08:03:53 51°13.989 2°53.585 243.8 11.7 240 9.8
2003-03-11 08:03:59 51°13.979 2°53.558 243.8 11.7 240 9.9
2003-03-11 08:04:04 51°13.971 2°53.535 243.8 11.7 240 9.8
2003-03-11 08:04:09 51°13.963 2°53.513 244 11.7 240 9.8
2003-03-11 08:04:14 51°13.955 2°53.49 243.8 11.7 240 9.9
2003-03-11 08:04:19 51°13.947 2°53.468 243.8 11.8 240 9.8
2003-03-11 08:04:24 51°13.939 2°53.446 244 11.8 240 9.8
2003-03-11 08:04:28 51°13.932 2°53.428 244 11.8 240 9.8
2003-03-11 08:04:34 51°13.923 2°53.401 243.9 11.7 240 9.8
2003-03-11 08:04:38 51°13.916 2°53.382 243.9 11.8 240 9.8
2003-03-11 08:04:43 51°13.908 2°53.36 244.3 11.8 241 9.8
2003-03-11 08:04:48 51°13.9 2°53.337 244.2 11.8 240 9.8
2003-03-11 08:04:54 51°13.89 2°53.31 243.9 11.8 240 9.8
2003-03-11 08:04:59 51°13.882 2°53.287 244 11.8 241 9.8
2003-03-11 08:05:04 51°13.874 2°53.264 243.9 11.8 240 9.8
2003-03-11 08:05:09 51°13.866 2°53.241 244.3 11.8 241 9.9
2003-03-11 08:05:14 51°13.858 2°53.218 244 11.8 240 9.9
2003-03-11 08:05:18 51°13.851 2°53.2 244 11.8 241 10
2003-03-11 08:05:24 51°13.841 2°53.172 243.8 12 240 10.1
2003-03-11 08:05:29 51°13.832 2°53.148 243.8 12.2 240 10
2003-03-11 08:05:34 51°13.823 2°53.124 244 12.4 240 10
2003-03-11 08:05:38 51°13.816 2°53.105 243.8 12.6 240 10
2003-03-11 08:05:44 51°13.806 2°53.075 244 12.8 240 10
2003-03-11 08:05:49 51°13.797 2°53.05 244.1 12.9 241 10
2003-03-11 08:05:54 51°13.788 2°53.025 244.1 13 241 10
2003-03-11 08:05:58 51°13.782 2°53.005 244.3 13.1 241 10
2003-03-11 08:06:04 51°13.77 2°52.975 243.9 13.2 240 10
2003-03-11 08:06:09 51°13.762 2°52.949 244.5 13.3 240 10
2003-03-11 08:06:14 51°13.753 2°52.923 245 13.3 241 10.1
2003-03-11 08:06:19 51°13.745 2°52.897 245.4 13.4 242 10.1
2003-03-11 08:06:24 51°13.736 2°52.871 246.4 13.4 242 10.2
2003-03-11 08:06:29 51°13.728 2°52.845 246.2 13.4 243 10.1
2003-03-11 08:06:34 51°13.719 2°52.818 246 13.4 242 10.2
2003-03-11 08:06:39 51°13.711 2°52.791 246.5 13.5 243 10.2
2003-03-11 08:06:44 51°13.703 2°52.765 246.2 13.5 243 10.3
2003-03-11 08:06:48 51°13.696 2°52.744 246.1 13.5 243 10.3
2003-03-11 08:06:54 51°13.685 2°52.713 246.1 13.5 242 10.4
2003-03-11 08:06:59 51°13.676 2°52.686 246 13.5 242 10.3
2003-03-11 08:07:04 51°13.667 2°52.659 246 13.6 242 10.3
2003-03-11 08:07:08 51°13.66 2°52.638 246 13.6 242 10.3
2003-03-11 08:07:14 51°13.65 2°52.606 246.2 13.6 242 10.4
2003-03-11 08:07:19 51°13.641 2°52.579 246.5 13.6 243 10.4
2003-03-11 08:07:24 51°13.632 2°52.553 246.3 13.8 242 10.4
2003-03-11 08:07:29 51°13.622 2°52.525 246.2 14.3 241 10.5
2003-03-11 08:07:34 51°13.614 2°52.499 246.1 13.9 241 10.6
2003-03-11 08:07:38 51°13.607 2°52.478 245.7 13.6 242 10.5
2003-03-11 08:07:44 51°13.597 2°52.447 246.1 13.5 242 10.6
2003-03-11 08:07:49 51°13.588 2°52.42 246.1 13.5 243 10.5
2003-03-11 08:07:54 51°13.58 2°52.394 245.9 13.5 242 10.5
2003-03-11 08:07:58 51°13.573 2°52.373 246.2 13.5 242 10.6
2003-03-11 08:08:04 51°13.562 2°52.341 246.6 13.6 243 10.6
2003-03-11 08:08:08 51°13.555 2°52.319 246.2 13.5 243 10.6
2003-03-11 08:08:12 51°13.548 2°52.298 245.9 13.5 242 10.6
2003-03-11 08:08:18 51°13.538 2°52.266 246 13.6 242 10.7
2003-03-11 08:08:24 51°13.527 2°52.234 246.1 13.6 242 10.6
2003-03-11 08:08:28 51°13.52 2°52.213 245.9 13.6 242 10.7
2003-03-11 08:08:32 51°13.513 2°52.192 246.1 13.6 242 10.7
2003-03-11 08:08:38 51°13.503 2°52.16 246.2 13.6 242 10.7
2003-03-11 08:08:44 51°13.492 2°52.129 246.1 13.6 243 10.7
2003-03-11 08:08:49 51°13.484 2°52.102 246.4 13.6 243 10.7
2003-03-11 08:08:54 51°13.475 2°52.076 246.2 13.6 243 10.7
2003-03-11 08:08:58 51°13.468 2°52.055 246.1 13.6 242 10.8
2003-03-11 08:09:04 51°13.458 2°52.023 246.2 13.6 243 10.8
2003-03-11 08:09:08 51°13.452 2°52.001 246.4 13.6 243 10.8
2003-03-11 08:09:14 51°13.441 2°51.969 246.6 13.6 243 10.8
2003-03-11 08:09:19 51°13.433 2°51.942 246.7 13.6 243 10.8
2003-03-11 08:09:24 51°13.424 2°51.916 246.1 13.6 243 10.7
2003-03-11 08:09:28 51°13.418 2°51.895 246.1 13.6 243 10.8
2003-03-11 08:09:34 51°13.407 2°51.863 246.3 13.6 243 10.8
2003-03-11 08:09:39 51°13.398 2°51.836 246.2 13.6 242 10.8
2003-03-11 08:09:44 51°13.389 2°51.81 245.8 13.6 242 10.8
2003-03-11 08:09:48 51°13.383 2°51.788 246 13.6 242 10.8
2003-03-11 08:09:54 51°13.372 2°51.756 246 13.6 242 10.7
2003-03-11 08:09:59 51°13.363 2°51.73 246 13.6 242 10.8
2003-03-11 08:10:04 51°13.354 2°51.703 246.3 13.6 243 10.8
2003-03-11 08:10:08 51°13.347 2°51.682 246.4 13.6 243 10.8
2003-03-11 08:10:12 51°13.34 2°51.66 246.3 13.6 243 10.8
2003-03-11 08:10:18 51°13.33 2°51.628 246.3 13.6 242 10.8
2003-03-11 08:10:24 51°13.319 2°51.596 246 13.6 243 10.8
2003-03-11 08:10:29 51°13.311 2°51.569 246.2 13.6 243 10.8
2003-03-11 08:10:34 51°13.302 2°51.542 246.5 13.6 243 10.7
2003-03-11 08:10:38 51°13.295 2°51.521 246.5 13.6 243 10.8
2003-03-11 08:10:44 51°13.284 2°51.489 246.1 13.6 243 10.8
2003-03-11 08:10:49 51°13.275 2°51.462 245.8 13.6 242 10.8
2003-03-11 08:10:54 51°13.267 2°51.435 246.1 13.6 242 10.8
2003-03-11 08:10:58 51°13.26 2°51.414 246.1 13.6 242 10.8
2003-03-11 08:11:04 51°13.249 2°51.382 246 13.6 242 10.7
2003-03-11 08:11:09 51°13.241 2°51.355 246.3 13.6 242 10.7
2003-03-11 08:11:14 51°13.232 2°51.328 246.4 13.7 243 10.8
2003-03-11 08:11:19 51°13.223 2°51.302 246.2 13.7 242 10.8
2003-03-11 08:11:24 51°13.214 2°51.275 246.2 13.6 242 10.8
2003-03-11 08:11:29 51°13.206 2°51.248 246.4 13.6 243 10.9
2003-03-11 08:11:34 51°13.197 2°51.221 246.6 13.6 243 10.9
2003-03-11 08:11:38 51°13.19 2°51.2 246.5 13.6 243 10.9
2003-03-11 08:11:44 51°13.179 2°51.168 246.5 13.6 243 10.9
2003-03-11 08:11:48 51°13.172 2°51.147 246 13.6 242 11
2003-03-11 08:11:54 51°13.162 2°51.115 246.1 13.6 242 11
2003-03-11 08:11:59 51°13.153 2°51.088 246.1 13.6 242 11
2003-03-11 08:12:03 51°13.147 2°51.067 246.4 13.6 243 11
2003-03-11 08:12:08 51°13.138 2°51.04 246.7 13.6 243 11
2003-03-11 08:12:14 51°13.128 2°51.009 246.5 13.6 243 11
2003-03-11 08:12:18 51°13.121 2°50.987 246.2 13.6 242 11
2003-03-11 08:12:24 51°13.11 2°50.955 246.3 13.6 243 11
2003-03-11 08:12:29 51°13.101 2°50.929 246 13.5 242 10.9
2003-03-11 08:12:34 51°13.093 2°50.903 246 13.5 242 11
2003-03-11 08:12:39 51°13.084 2°50.877 246 13.5 242 11
2003-03-11 08:12:44 51°13.075 2°50.85 246 13.6 242 11
2003-03-11 08:12:49 51°13.067 2°50.824 246.2 13.6 242 11
2003-03-11 08:12:54 51°13.058 2°50.797 246.5 13.5 243 10.9
2003-03-11 08:12:59 51°13.05 2°50.771 246.2 13.5 242 11.1
2003-03-11 08:13:04 51°13.041 2°50.744 246 13.5 242 11.1
2003-03-11 08:13:08 51°13.034 2°50.723 245.9 13.5 242 11.1
2003-03-11 08:13:14 51°13.024 2°50.691 246.3 13.5 243 11
2003-03-11 08:13:19 51°13.015 2°50.665 246.5 13.5 243 11.1
2003-03-11 08:13:24 51°13.006 2°50.639 246.1 13.5 243 11.1
2003-03-11 08:13:28 51°12.999 2°50.618 246.5 13.5 243 11.1
2003-03-11 08:13:34 51°12.989 2°50.587 246.6 13.5 243 11.1
2003-03-11 08:13:39 51°12.981 2°50.561 246.5 13.5 243 11.1
2003-03-11 08:13:44 51°12.972 2°50.534 246.5 13.6 243 11.1
2003-03-11 08:13:48 51°12.965 2°50.513 246.5 13.5 243 11.1
2003-03-11 08:13:54 51°12.955 2°50.481 246.7 13.6 243 11.1
2003-03-11 08:13:59 51°12.946 2°50.455 246.5 13.5 243 11.2
2003-03-11 08:14:04 51°12.938 2°50.428 246.2 13.5 243 11.1
2003-03-11 08:14:08 51°12.931 2°50.407 246.2 13.6 242 11.1
2003-03-11 08:14:14 51°12.92 2°50.375 246 13.6 242 11.1
2003-03-11 08:14:18 51°12.913 2°50.354 245.8 13.6 242 11.2
2003-03-11 08:14:24 51°12.903 2°50.322 246.1 13.6 242 11.2
2003-03-11 08:14:29 51°12.894 2°50.296 246.4 13.6 242 11.2
2003-03-11 08:14:34 51°12.886 2°50.269 246.5 13.5 243 11.2
2003-03-11 08:14:39 51°12.877 2°50.243 246.3 13.5 243 11.1
2003-03-11 08:14:44 51°12.868 2°50.216 246.1 13.6 242 11.2
2003-03-11 08:14:48 51°12.861 2°50.195 246.5 13.6 243 11.2
2003-03-11 08:14:54 51°12.851 2°50.163 246.6 13.6 243 11.2
2003-03-11 08:14:59 51°12.842 2°50.136 246.2 13.6 243 11.2
2003-03-11 08:15:04 51°12.833 2°50.109 246.5 13.6 243 11.2
2003-03-11 08:15:09 51°12.825 2°50.083 246.5 13.6 243 11.3
2003-03-11 08:15:14 51°12.816 2°50.056 246.6 13.6 243 11.2
2003-03-11 08:15:18 51°12.809 2°50.035 246.3 13.6 242 11.3
2003-03-11 08:15:23 51°12.801 2°50.008 246.1 13.6 242 11.3
2003-03-11 08:15:28 51°12.792 2°49.981 246.7 13.6 243 11.3
2003-03-11 08:15:34 51°12.781 2°49.949 246.5 13.6 243 11.3
2003-03-11 08:15:39 51°12.773 2°49.923 246 13.6 242 11.4
2003-03-11 08:15:44 51°12.764 2°49.896 246.1 13.6 243 11.3
2003-03-11 08:15:49 51°12.755 2°49.869 246.2 13.6 243 11.4
2003-03-11 08:15:54 51°12.747 2°49.842 246.5 13.6 243 11.4
2003-03-11 08:15:59 51°12.738 2°49.816 246.4 13.6 243 11.4
2003-03-11 08:16:04 51°12.729 2°49.789 246.2 13.7 242 11.4
2003-03-11 08:16:08 51°12.722 2°49.767 246 13.7 242 11.4
2003-03-11 08:16:12 51°12.715 2°49.746 245.8 13.6 242 11.3
2003-03-11 08:16:18 51°12.704 2°49.714 246 13.6 242 11.4
2003-03-11 08:16:24 51°12.694 2°49.682 246.2 13.7 243 11.5
2003-03-11 08:16:29 51°12.685 2°49.655 246.3 13.7 243 11.4
2003-03-11 08:16:34 51°12.677 2°49.628 246.4 13.7 243 11.5
2003-03-11 08:16:38 51°12.67 2°49.607 246.5 13.6 243 11.5
2003-03-11 08:16:44 51°12.659 2°49.575 246.2 13.6 243 11.5
2003-03-11 08:16:48 51°12.652 2°49.554 245.9 13.6 242 11.5
2003-03-11 08:16:54 51°12.642 2°49.522 246 13.7 242 11.5
2003-03-11 08:16:58 51°12.635 2°49.5 246.4 13.7 243 11.5
2003-03-11 08:17:04 51°12.624 2°49.469 246.4 13.6 243 11.6
2003-03-11 08:17:09 51°12.616 2°49.442 246.2 13.6 243 11.5
2003-03-11 08:17:14 51°12.607 2°49.415 246.2 13.6 242 11.5
2003-03-11 08:17:18 51°12.6 2°49.394 246.2 13.6 242 11.6
2003-03-11 08:17:24 51°12.59 2°49.362 246.2 13.6 243 11.6
2003-03-11 08:17:28 51°12.583 2°49.341 246.4 13.6 243 11.6
2003-03-11 08:17:34 51°12.573 2°49.308 246.5 13.6 243 11.6
2003-03-11 08:17:39 51°12.564 2°49.28 246.5 13.6 243 11.6
2003-03-11 08:17:44 51°12.555 2°49.253 246.1 13.6 243 11.6
2003-03-11 08:17:49 51°12.546 2°49.226 245.9 13.6 242 11.7
2003-03-11 08:17:54 51°12.537 2°49.2 246 13.6 242 11.6
2003-03-11 08:17:59 51°12.529 2°49.173 246.2 13.6 243 11.7
2003-03-11 08:18:04 51°12.52 2°49.146 246.1 13.6 243 11.7
2003-03-11 08:18:08 51°12.513 2°49.125 246.1 13.6 243 11.6
2003-03-11 08:18:14 51°12.502 2°49.093 246.2 13.6 243 11.7
2003-03-11 08:18:19 51°12.494 2°49.066 246.4 13.7 243 11.7
2003-03-11 08:18:24 51°12.485 2°49.039 246.5 13.6 243 11.7
2003-03-11 08:18:29 51°12.476 2°49.012 246.2 13.6 243 11.7
2003-03-11 08:18:34 51°12.468 2°48.985 246.1 13.6 243 11.7
2003-03-11 08:18:38 51°12.461 2°48.964 246.4 13.6 243 11.7
2003-03-11 08:18:43 51°12.452 2°48.937 246.5 13.6 243 11.7
2003-03-11 08:18:48 51°12.443 2°48.91 246.1 13.6 243 11.7
2003-03-11 08:18:54 51°12.433 2°48.879 246.2 13.6 243 11.7
2003-03-11 08:18:59 51°12.425 2°48.853 246.6 13.6 243 11.7
2003-03-11 08:19:04 51°12.416 2°48.828 246.1 13.6 243 11.7
2003-03-11 08:19:09 51°12.407 2°48.801 245.8 13.6 242 11.8
2003-03-11 08:19:14 51°12.399 2°48.774 245.5 13.6 242 11.8
2003-03-11 08:19:19 51°12.389 2°48.747 245.3 13.6 242 11.7
2003-03-11 08:19:24 51°12.38 2°48.721 245.2 13.6 242 11.8
2003-03-11 08:19:29 51°12.371 2°48.695 244.8 13.6 241 11.8
2003-03-11 08:19:34 51°12.362 2°48.668 245 13.6 241 11.8
2003-03-11 08:19:39 51°12.353 2°48.642 245 13.6 241 11.8
2003-03-11 08:19:44 51°12.344 2°48.616 245 13.6 241 11.8
2003-03-11 08:19:49 51°12.335 2°48.59 245.1 13.6 241 11.9
2003-03-11 08:19:54 51°12.326 2°48.564 245.2 13.5 241 11.8
2003-03-11 08:19:58 51°12.319 2°48.543 245.2 13.5 242 11.8
2003-03-11 08:20:04 51°12.309 2°48.511 245.3 13.6 242 11.8
2003-03-11 08:20:09 51°12.3 2°48.485 245.3 13.6 242 11.9
2003-03-11 08:20:14 51°12.291 2°48.458 245 13.6 242 11.9
2003-03-11 08:20:18 51°12.283 2°48.438 244.8 13.6 241 11.9
2003-03-11 08:20:24 51°12.273 2°48.406 244.9 13.6 241 11.9
2003-03-11 08:20:28 51°12.265 2°48.385 245.5 13.6 242 11.9
2003-03-11 08:20:34 51°12.254 2°48.353 245.6 13.6 242 11.9
2003-03-11 08:20:39 51°12.245 2°48.326 245.6 13.6 242 11.8
2003-03-11 08:20:44 51°12.236 2°48.299 245.5 13.6 242 11.8
2003-03-11 08:20:48 51°12.228 2°48.278 245.2 13.7 242 11.9
2003-03-11 08:20:54 51°12.217 2°48.245 245.1 13.6 242 11.8
2003-03-11 08:20:59 51°12.209 2°48.219 244.7 13.6 241 11.9
2003-03-11 08:21:04 51°12.2 2°48.193 245.1 13.6 242 11.8
2003-03-11 08:21:09 51°12.191 2°48.166 245.1 13.6 241 11.9
2003-03-11 08:21:14 51°12.182 2°48.139 245.3 13.6 242 11.8
2003-03-11 08:21:19 51°12.173 2°48.112 245.2 13.6 242 11.8
2003-03-11 08:21:24 51°12.164 2°48.086 245.3 13.6 242 11.9
2003-03-11 08:21:29 51°12.155 2°48.059 245.4 13.6 242 11.9
2003-03-11 08:21:34 51°12.147 2°48.033 245.6 13.7 242 11.9
2003-03-11 08:21:39 51°12.138 2°48.006 245.5 13.6 242 11.9
2003-03-11 08:21:44 51°12.129 2°47.98 245.3 13.6 242 11.9
2003-03-11 08:21:48 51°12.122 2°47.958 245.2 13.6 242 11.9
2003-03-11 08:21:54 51°12.111 2°47.926 245.4 13.6 242 12
2003-03-11 08:21:58 51°12.104 2°47.905 245.2 13.6 242 11.9
2003-03-11 08:22:04 51°12.093 2°47.873 245.3 13.7 242 11.9
2003-03-11 08:22:09 51°12.084 2°47.847 245.3 13.7 242 11.9
2003-03-11 08:22:14 51°12.075 2°47.82 245.4 13.6 242 11.9
2003-03-11 08:22:19 51°12.067 2°47.795 245.4 13.6 242 11.9
2003-03-11 08:22:24 51°12.058 2°47.769 245.6 13.6 242 11.9
2003-03-11 08:22:28 51°12.051 2°47.748 245.8 13.6 242 11.9
2003-03-11 08:22:34 51°12.041 2°47.716 245.4 13.6 242 11.8
2003-03-11 08:22:39 51°12.032 2°47.69 245.4 13.6 242 11.9
2003-03-11 08:22:44 51°12.023 2°47.663 245.2 13.6 242 11.9
2003-03-11 08:22:48 51°12.016 2°47.642 244.9 13.6 242 11.9
2003-03-11 08:22:54 51°12.004 2°47.61 244.8 13.6 241 11.9
2003-03-11 08:22:59 51°11.995 2°47.583 245.2 13.6 242 11.9
2003-03-11 08:23:04 51°11.985 2°47.557 245.4 13.6 242 11.9
2003-03-11 08:23:08 51°11.978 2°47.535 245.5 13.7 242 11.9
2003-03-11 08:23:14 51°11.968 2°47.503 245.8 13.7 242 11.9
2003-03-11 08:23:18 51°11.961 2°47.482 245.4 13.6 242 11.9
2003-03-11 08:23:24 51°11.95 2°47.451 245.1 13.6 242 11.8
2003-03-11 08:23:29 51°11.941 2°47.424 245.3 13.7 242 11.9
2003-03-11 08:23:34 51°11.932 2°47.397 245.3 13.7 242 11.8
2003-03-11 08:23:39 51°11.923 2°47.371 245.3 13.7 242 11.9
2003-03-11 08:23:44 51°11.914 2°47.345 245.1 13.7 242 11.8
2003-03-11 08:23:48 51°11.907 2°47.324 245.1 13.6 242 11.8
2003-03-11 08:23:54 51°11.897 2°47.292 245.3 13.7 242 11.8
2003-03-11 08:23:59 51°11.888 2°47.265 245.4 13.7 242 11.8
2003-03-11 08:24:04 51°11.879 2°47.239 245.3 13.7 242 11.7
2003-03-11 08:24:09 51°11.87 2°47.213 245.1 13.7 242 11.7
2003-03-11 08:24:14 51°11.86 2°47.186 245.1 13.7 242 11.7
2003-03-11 08:24:18 51°11.852 2°47.165 244.8 13.7 241 11.6
2003-03-11 08:24:23 51°11.843 2°47.138 245.3 13.7 242 11.7
2003-03-11 08:24:28 51°11.834 2°47.111 245.5 13.7 242 11.6
2003-03-11 08:24:34 51°11.823 2°47.079 245.2 13.7 242 11.6
2003-03-11 08:24:39 51°11.814 2°47.053 245 13.7 242 11.6
2003-03-11 08:24:44 51°11.805 2°47.026 245.1 13.7 242 11.5
2003-03-11 08:24:49 51°11.796 2°46.999 245.5 13.7 242 11.6
2003-03-11 08:24:54 51°11.787 2°46.972 245.3 13.7 242 11.6
2003-03-11 08:24:59 51°11.778 2°46.945 245.3 13.7 242 11.6
2003-03-11 08:25:04 51°11.769 2°46.918 245.3 13.7 242 11.7
2003-03-11 08:25:08 51°11.762 2°46.896 245.5 13.7 242 11.7
2003-03-11 08:25:12 51°11.755 2°46.875 245.2 13.7 242 11.6
2003-03-11 08:25:18 51°11.744 2°46.843 245.3 13.7 242 11.5
2003-03-11 08:25:24 51°11.733 2°46.81 245.6 13.7 242 11.5
2003-03-11 08:25:29 51°11.724 2°46.783 245.6 13.7 242 11.5
2003-03-11 08:25:34 51°11.715 2°46.756 245.3 13.7 242 11.5
2003-03-11 08:25:38 51°11.709 2°46.734 245.4 13.7 242 11.5
2003-03-11 08:25:44 51°11.698 2°46.702 245.5 13.7 242 11.5
2003-03-11 08:25:48 51°11.69 2°46.68 245.4 13.7 242 11.6
2003-03-11 08:25:54 51°11.678 2°46.648 245.1 13.7 242 11.5
2003-03-11 08:25:58 51°11.671 2°46.627 245.3 13.7 242 11.6
2003-03-11 08:26:04 51°11.66 2°46.595 245.2 13.7 242 11.6
2003-03-11 08:26:09 51°11.652 2°46.568 245.3 13.7 242 11.5
2003-03-11 08:26:14 51°11.643 2°46.541 245 13.7 242 11.6
2003-03-11 08:26:18 51°11.636 2°46.52 245.1 13.8 242 11.5
2003-03-11 08:26:24 51°11.625 2°46.488 245.4 13.8 242 11.5
2003-03-11 08:26:28 51°11.618 2°46.466 245.3 13.8 242 11.6
2003-03-11 08:26:34 51°11.608 2°46.434 245.3 13.8 242 11.6
2003-03-11 08:26:39 51°11.599 2°46.408 245.3 13.7 242 11.6
2003-03-11 08:26:44 51°11.59 2°46.381 245.3 13.7 242 11.6
2003-03-11 08:26:48 51°11.583 2°46.36 245.2 13.7 242 11.6
2003-03-11 08:26:54 51°11.573 2°46.328 245.4 13.7 242 11.6
2003-03-11 08:26:59 51°11.564 2°46.302 245.6 13.7 242 11.6
2003-03-11 08:27:04 51°11.555 2°46.275 245.6 13.7 242 11.5
2003-03-11 08:27:08 51°11.548 2°46.253 245.4 13.7 242 11.5
2003-03-11 08:27:14 51°11.537 2°46.221 245.2 13.7 242 11.5
2003-03-11 08:27:19 51°11.528 2°46.195 245.3 13.7 242 11.4
2003-03-11 08:27:24 51°11.52 2°46.169 245.3 13.7 242 11.4
2003-03-11 08:27:29 51°11.511 2°46.143 245.4 13.7 242 11.4
2003-03-11 08:27:34 51°11.502 2°46.116 245.4 13.7 242 11.4
2003-03-11 08:27:39 51°11.493 2°46.089 245.3 13.7 242 11.4
2003-03-11 08:27:44 51°11.484 2°46.062 245.1 13.7 242 11.3
2003-03-11 08:27:48 51°11.477 2°46.042 244.8 13.7 242 11.3
2003-03-11 08:27:54 51°11.466 2°46.01 245.5 13.7 242 11.3
2003-03-11 08:27:59 51°11.457 2°45.983 245.7 13.7 242 11.3
2003-03-11 08:28:04 51°11.448 2°45.956 245.4 13.7 242 11.2
2003-03-11 08:28:08 51°11.441 2°45.935 245.4 13.7 242 11.2
2003-03-11 08:28:14 51°11.43 2°45.903 245.3 13.7 242 11.2
2003-03-11 08:28:18 51°11.423 2°45.881 245.2 13.6 242 11.2
2003-03-11 08:28:24 51°11.413 2°45.849 245.1 13.6 242 11.1
2003-03-11 08:28:29 51°11.404 2°45.822 245.5 13.7 242 11.2
2003-03-11 08:28:34 51°11.395 2°45.796 245.5 13.7 242 11.1
2003-03-11 08:28:39 51°11.385 2°45.769 245.3 13.7 242 11.1
2003-03-11 08:28:44 51°11.375 2°45.743 245.3 13.7 242 11.1
2003-03-11 08:28:48 51°11.368 2°45.721 245.2 13.7 242 11.1
2003-03-11 08:28:54 51°11.357 2°45.689 245.3 13.7 242 11.1
2003-03-11 08:28:59 51°11.348 2°45.663 244.9 13.7 242 11.1
2003-03-11 08:29:04 51°11.339 2°45.636 244.8 13.7 242 11
2003-03-11 08:29:09 51°11.331 2°45.609 245.3 13.7 242 11
2003-03-11 08:29:14 51°11.322 2°45.583 245.5 13.7 242 11
2003-03-11 08:29:18 51°11.315 2°45.561 245.5 13.7 242 10.9
2003-03-11 08:29:23 51°11.306 2°45.535 245.2 13.7 242 10.9
2003-03-11 08:29:28 51°11.297 2°45.509 245.1 13.7 242 10.9
2003-03-11 08:29:34 51°11.287 2°45.477 245.3 13.7 242 10.9
2003-03-11 08:29:39 51°11.278 2°45.45 245.4 13.7 242 10.8
2003-03-11 08:29:44 51°11.269 2°45.423 245.3 13.7 242 10.7
2003-03-11 08:29:48 51°11.262 2°45.402 245.4 13.7 242 10.7
2003-03-11 08:29:54 51°11.252 2°45.37 245.3 13.7 242 10.7
2003-03-11 08:29:59 51°11.243 2°45.344 245.2 13.7 242 10.7
2003-03-11 08:30:04 51°11.234 2°45.317 245.2 13.7 242 10.7
2003-03-11 08:30:08 51°11.227 2°45.295 245.5 13.8 242 10.6
2003-03-11 08:30:14 51°11.216 2°45.264 245.5 13.7 242 10.6
2003-03-11 08:30:19 51°11.207 2°45.237 245.2 13.7 242 10.6
2003-03-11 08:30:24 51°11.199 2°45.21 245.3 13.7 242 10.6
2003-03-11 08:30:28 51°11.192 2°45.189 245.3 13.7 242 10.5
2003-03-11 08:30:34 51°11.181 2°45.157 245.3 13.7 242 10.5
2003-03-11 08:30:39 51°11.172 2°45.13 245.5 13.8 242 10.5
2003-03-11 08:30:44 51°11.163 2°45.103 245.3 13.7 242 10.5
2003-03-11 08:30:49 51°11.154 2°45.076 245.2 13.7 242 10.4
2003-03-11 08:30:54 51°11.145 2°45.05 245.1 13.7 242 10.4
2003-03-11 08:30:59 51°11.136 2°45.023 245.4 13.7 242 10.5
2003-03-11 08:31:04 51°11.127 2°44.996 245.4 13.7 242 10.4
2003-03-11 08:31:09 51°11.118 2°44.969 245.3 13.8 242 10.4
2003-03-11 08:31:14 51°11.109 2°44.943 245.3 13.8 242 10.4
2003-03-11 08:31:19 51°11.1 2°44.916 245.1 13.7 242 10.3
2003-03-11 08:31:24 51°11.091 2°44.889 244.9 13.7 242 10.3
2003-03-11 08:31:28 51°11.084 2°44.868 245.1 13.7 242 10.4
2003-03-11 08:31:34 51°11.073 2°44.836 245.1 13.7 242 10.3
2003-03-11 08:31:39 51°11.064 2°44.809 245.3 13.8 242 10.3
2003-03-11 08:31:44 51°11.055 2°44.782 245.3 13.7 242 10.3
2003-03-11 08:31:49 51°11.046 2°44.755 245.1 13.7 242 10.2
2003-03-11 08:31:54 51°11.038 2°44.728 245.3 13.7 242 10.2
2003-03-11 08:31:58 51°11.031 2°44.707 245.3 13.7 242 10.1
2003-03-11 08:32:04 51°11.02 2°44.675 245.3 13.8 242 10.1
2003-03-11 08:32:09 51°11.011 2°44.648 245.5 13.8 242 10.1
2003-03-11 08:32:14 51°11.002 2°44.621 245.3 13.7 242 10.1
2003-03-11 08:32:18 51°10.995 2°44.599 245.4 13.7 242 10.1
2003-03-11 08:32:24 51°10.985 2°44.567 245.5 13.7 243 10
2003-03-11 08:32:29 51°10.975 2°44.54 245.2 13.7 242 10
2003-03-11 08:32:34 51°10.967 2°44.513 245.3 13.8 242 10
2003-03-11 08:32:39 51°10.958 2°44.486 245.3 13.8 242 10
2003-03-11 08:32:44 51°10.949 2°44.46 245.4 13.7 242 10
2003-03-11 08:32:49 51°10.94 2°44.433 245.3 13.7 242 10
2003-03-11 08:32:54 51°10.931 2°44.406 245.4 13.7 242 9.9
2003-03-11 08:32:59 51°10.922 2°44.379 245.3 13.7 242 9.9
2003-03-11 08:33:04 51°10.913 2°44.352 245.1 13.7 242 9.9
2003-03-11 08:33:09 51°10.904 2°44.326 245.1 13.7 242 9.9
2003-03-11 08:33:14 51°10.895 2°44.299 245.1 13.7 242 9.8
2003-03-11 08:33:19 51°10.886 2°44.272 245.4 13.7 242 9.8
2003-03-11 08:33:24 51°10.878 2°44.245 245.4 13.7 242 9.8
2003-03-11 08:33:28 51°10.87 2°44.224 245.4 13.7 242 9.8
2003-03-11 08:33:34 51°10.859 2°44.192 245.2 13.7 242 9.8
2003-03-11 08:33:39 51°10.85 2°44.165 245.1 13.7 242 9.7
2003-03-11 08:33:44 51°10.841 2°44.139 245.1 13.7 242 9.7
2003-03-11 08:33:49 51°10.832 2°44.112 244.9 13.7 242 9.7
2003-03-11 08:33:54 51°10.823 2°44.085 245.3 13.7 242 9.7
2003-03-11 08:33:59 51°10.815 2°44.058 245.5 13.7 242 9.6
2003-03-11 08:34:04 51°10.806 2°44.032 245.6 13.7 242 9.6
2003-03-11 08:34:08 51°10.799 2°44.01 245.4 13.7 242 9.5
2003-03-11 08:34:14 51°10.788 2°43.979 245.1 13.7 242 9.5
2003-03-11 08:34:19 51°10.78 2°43.952 245 13.7 242 9.6
2003-03-11 08:34:23 51°10.773 2°43.93 245.4 13.8 242 9.6
2003-03-11 08:34:29 51°10.762 2°43.898 245.4 13.7 242 9.5
2003-03-11 08:34:34 51°10.754 2°43.871 245.4 13.7 242 9.5
2003-03-11 08:34:39 51°10.745 2°43.845 245.5 13.7 242 9.5
2003-03-11 08:34:44 51°10.736 2°43.818 245.5 13.7 242 9.4
2003-03-11 08:34:49 51°10.728 2°43.791 245.3 13.7 242 9.4
2003-03-11 08:34:54 51°10.719 2°43.764 245.3 13.7 242 9.4
2003-03-11 08:34:59 51°10.71 2°43.737 245.4 13.7 243 9.4
2003-03-11 08:35:04 51°10.702 2°43.71 245.7 13.7 243 9.4
2003-03-11 08:35:09 51°10.694 2°43.683 247.8 13.7 245 9.3
2003-03-11 08:35:14 51°10.688 2°43.655 251.6 13.7 248 9.3
2003-03-11 08:35:19 51°10.682 2°43.626 255.1 13.7 251 9.3
2003-03-11 08:35:24 51°10.677 2°43.596 258.7 13.7 255 9.4
2003-03-11 08:35:29 51°10.674 2°43.567 260.5 13.7 257 9.4
2003-03-11 08:35:34 51°10.671 2°43.537 263.5 13.7 260 9.4
2003-03-11 08:35:39 51°10.669 2°43.507 267.8 13.7 263 9.5
2003-03-11 08:35:44 51°10.669 2°43.477 271.4 13.6 267 9.5
2003-03-11 08:35:49 51°10.669 2°43.446 273.8 13.7 270 9.6
2003-03-11 08:35:54 51°10.67 2°43.416 276 13.7 272 9.7
2003-03-11 08:35:59 51°10.671 2°43.386 277.4 13.7 273 9.7
2003-03-11 08:36:04 51°10.673 2°43.356 278.7 13.8 274 9.7
2003-03-11 08:36:09 51°10.675 2°43.326 279.4 13.8 275 9.9
2003-03-11 08:36:14 51°10.677 2°43.296 280.1 13.8 276 9.9
2003-03-11 08:36:19 51°10.679 2°43.266 280.2 13.8 276 10
2003-03-11 08:36:24 51°10.68 2°43.236 280.9 13.8 277 10
2003-03-11 08:36:28 51°10.682 2°43.211 281.6 13.9 277 10.1
2003-03-11 08:36:34 51°10.685 2°43.175 282.1 13.9 278 10.2
2003-03-11 08:36:38 51°10.687 2°43.151 282.6 13.9 278 10.3
2003-03-11 08:36:44 51°10.691 2°43.115 282.7 13.9 279 10.4
2003-03-11 08:36:48 51°10.693 2°43.09 283 13.9 279 10.5
2003-03-11 08:36:54 51°10.697 2°43.054 283 13.9 279 10.6
2003-03-11 08:36:59 51°10.699 2°43.023 282.8 13.9 279 10.7
2003-03-11 08:37:04 51°10.702 2°42.993 282.9 13.9 279 10.7
2003-03-11 08:37:08 51°10.705 2°42.969 282.8 13.9 279 10.8
2003-03-11 08:37:14 51°10.708 2°42.932 282.3 13.9 278 11
2003-03-11 08:37:19 51°10.711 2°42.902 282.3 13.9 278 11.1
2003-03-11 08:37:23 51°10.713 2°42.878 282.8 14 279 11.1
2003-03-11 08:37:29 51°10.717 2°42.841 282.8 13.9 279 11.2
2003-03-11 08:37:34 51°10.72 2°42.81 282.6 13.9 278 11.3
2003-03-11 08:37:39 51°10.723 2°42.78 282.3 14 278 11.3
2003-03-11 08:37:44 51°10.726 2°42.75 282.8 14 278 11.5
2003-03-11 08:37:49 51°10.729 2°42.719 282.9 14 279 11.5
2003-03-11 08:37:54 51°10.732 2°42.689 282.8 13.9 279 11.6
2003-03-11 08:37:59 51°10.735 2°42.658 282.6 13.9 279 11.6
2003-03-11 08:38:04 51°10.738 2°42.628 282.6 13.9 279 11.7
2003-03-11 08:38:08 51°10.74 2°42.603 282.6 13.9 279 11.8
2003-03-11 08:38:14 51°10.744 2°42.567 282.5 13.9 279 11.8
2003-03-11 08:38:19 51°10.747 2°42.536 282.4 13.9 278 11.8
2003-03-11 08:38:24 51°10.75 2°42.506 282.9 13.9 279 11.9
2003-03-11 08:38:28 51°10.752 2°42.481 283.1 13.9 279 12
2003-03-11 08:38:34 51°10.754 2°42.443 282.9 13.9 279 12
2003-03-11 08:38:39 51°10.756 2°42.412 282.6 13.9 279 12.1
2003-03-11 08:38:44 51°10.758 2°42.381 282.8 13.9 279 12.1
2003-03-11 08:38:48 51°10.759 2°42.356 283 13.9 279 12.2
2003-03-11 08:38:54 51°10.762 2°42.319 282.9 13.9 279 12.2
2003-03-11 08:38:59 51°10.764 2°42.288 282.6 13.9 279 12.3
2003-03-11 08:39:04 51°10.767 2°42.258 282.6 13.9 279 12.2
2003-03-11 08:39:08 51°10.769 2°42.233 283 13.9 279 12.3
2003-03-11 08:39:14 51°10.773 2°42.196 283 13.9 279 12.3
2003-03-11 08:39:19 51°10.777 2°42.166 282.9 13.9 279 12.4
2003-03-11 08:39:24 51°10.781 2°42.136 282.6 13.9 279 12.5
2003-03-11 08:39:28 51°10.783 2°42.112 283 13.9 279 12.5
2003-03-11 08:39:34 51°10.787 2°42.076 283.1 13.9 279 12.6
2003-03-11 08:39:39 51°10.79 2°42.046 282.8 13.9 279 12.6
2003-03-11 08:39:44 51°10.793 2°42.016 283 13.9 279 12.6
2003-03-11 08:39:49 51°10.797 2°41.986 283.1 13.9 279 12.6
2003-03-11 08:39:54 51°10.8 2°41.956 283 13.9 279 12.6
2003-03-11 08:39:59 51°10.803 2°41.926 283 13.9 279 12.7
2003-03-11 08:40:04 51°10.806 2°41.896 283 13.9 279 12.7
2003-03-11 08:40:09 51°10.809 2°41.866 283 13.9 279 12.8
2003-03-11 08:40:14 51°10.813 2°41.836 283 13.9 279 12.7
2003-03-11 08:40:18 51°10.815 2°41.812 283 13.9 279 12.8
2003-03-11 08:40:24 51°10.819 2°41.777 283 13.9 279 12.8
2003-03-11 08:40:28 51°10.822 2°41.753 283 13.9 279 12.7
2003-03-11 08:40:34 51°10.826 2°41.717 282.9 13.9 279 12.8
2003-03-11 08:40:39 51°10.829 2°41.687 282.9 13.9 279 12.8
2003-03-11 08:40:44 51°10.832 2°41.657 282.8 13.9 279 12.8
2003-03-11 08:40:48 51°10.835 2°41.633 283 13.9 279 12.7
2003-03-11 08:40:54 51°10.839 2°41.597 283 13.9 279 12.7
2003-03-11 08:40:59 51°10.842 2°41.567 283 13.9 280 12.7
2003-03-11 08:41:04 51°10.845 2°41.537 283 13.8 279 12.6
2003-03-11 08:41:08 51°10.847 2°41.512 283 13.9 279 12.5
2003-03-11 08:41:14 51°10.851 2°41.476 283.1 13.9 279 12.6
2003-03-11 08:41:19 51°10.854 2°41.446 283.2 13.9 280 12.6
2003-03-11 08:41:24 51°10.857 2°41.416 283.1 13.8 279 12.6
2003-03-11 08:41:28 51°10.859 2°41.392 282.9 13.8 280 12.6
2003-03-11 08:41:34 51°10.863 2°41.356 282.9 13.8 279 12.5
2003-03-11 08:41:39 51°10.865 2°41.326 283 13.8 279 12.6
2003-03-11 08:41:44 51°10.868 2°41.296 280.2 13.8 278 12.6
2003-03-11 08:41:48 51°10.869 2°41.272 275.5 13.7 273 12.5
2003-03-11 08:41:52 51°10.869 2°41.248 270.1 13.6 269 12.5
2003-03-11 08:41:59 51°10.866 2°41.207 265.8 13.6 264 12.5
2003-03-11 08:42:04 51°10.863 2°41.177 263.4 13.6 261 12.5
2003-03-11 08:42:08 51°10.86 2°41.154 260.1 13.5 259 12.6
2003-03-11 08:42:14 51°10.853 2°41.12 256.1 13.5 255 12.6
2003-03-11 08:42:19 51°10.847 2°41.092 253.3 13.6 251 12.6
2003-03-11 08:42:24 51°10.84 2°41.064 251.1 13.6 249 12.6
2003-03-11 08:42:28 51°10.834 2°41.042 249.6 13.6 247 12.7
2003-03-11 08:42:34 51°10.824 2°41.009 248.2 13.6 246 12.7
2003-03-11 08:42:39 51°10.816 2°40.982 247.4 13.6 245 12.7
2003-03-11 08:42:44 51°10.807 2°40.955 246.9 13.6 244 12.7
2003-03-11 08:42:48 51°10.8 2°40.934 245.6 13.7 243 12.8
2003-03-11 08:42:54 51°10.789 2°40.902 243.1 13.7 241 12.8
2003-03-11 08:42:59 51°10.778 2°40.878 238 13.6 237 12.7
2003-03-11 08:43:04 51°10.767 2°40.854 235.3 13.6 234 12.9
2003-03-11 08:43:08 51°10.758 2°40.836 233.1 13.6 232 12.9
2003-03-11 08:43:14 51°10.743 2°40.809 231.6 13.6 230 12.9
2003-03-11 08:43:19 51°10.73 2°40.787 228.9 13.5 227 12.9
2003-03-11 08:43:23 51°10.719 2°40.772 224.2 13.5 224 12.9
2003-03-11 08:43:29 51°10.701 2°40.751 220.5 13.5 219 12.9
2003-03-11 08:43:34 51°10.687 2°40.734 217.9 13.5 217 12.9
2003-03-11 08:43:39 51°10.671 2°40.718 215.8 13.5 214 12.9
2003-03-11 08:43:44 51°10.655 2°40.702 214.6 13.5 213 12.9
2003-03-11 08:43:49 51°10.639 2°40.687 212.6 13.6 211 12.9
2003-03-11 08:43:54 51°10.623 2°40.673 211.7 13.6 210 13
2003-03-11 08:43:59 51°10.606 2°40.658 211.2 13.6 209 12.9
2003-03-11 08:44:04 51°10.589 2°40.643 210.1 13.6 209 13
2003-03-11 08:44:09 51°10.572 2°40.629 210 13.6 208 13
2003-03-11 08:44:14 51°10.556 2°40.614 210 13.7 209 12.9
2003-03-11 08:44:19 51°10.539 2°40.6 210.1 13.7 209 13
2003-03-11 08:44:24 51°10.523 2°40.586 210.4 13.7 209 12.9
2003-03-11 08:44:28 51°10.51 2°40.575 210.4 13.7 209 12.9
2003-03-11 08:44:34 51°10.489 2°40.557 210.1 13.7 209 12.9
2003-03-11 08:44:39 51°10.473 2°40.542 210 13.7 209 12.8
2003-03-11 08:44:44 51°10.456 2°40.528 209.9 13.7 208 12.7
2003-03-11 08:44:48 51°10.443 2°40.516 210.2 13.7 208 12.7
2003-03-11 08:44:54 51°10.423 2°40.5 210.8 13.7 209 12.6
2003-03-11 08:44:59 51°10.406 2°40.485 210.5 13.7 209 12.7
2003-03-11 08:45:04 51°10.39 2°40.47 210.5 13.8 209 12.6
2003-03-11 08:45:08 51°10.376 2°40.458 210.8 13.7 209 12.6
2003-03-11 08:45:14 51°10.356 2°40.441 210.7 13.7 209 12.4
2003-03-11 08:45:19 51°10.34 2°40.426 210.5 13.8 209 12.4
2003-03-11 08:45:24 51°10.323 2°40.411 211.1 13.8 209 12.4
2003-03-11 08:45:29 51°10.307 2°40.396 211.3 13.7 210 12.3
2003-03-11 08:45:34 51°10.29 2°40.381 211.1 13.7 210 12.2
2003-03-11 08:45:39 51°10.274 2°40.366 211.2 13.8 210 12.2
2003-03-11 08:45:44 51°10.257 2°40.35 211.5 13.8 210 12.2
2003-03-11 08:45:48 51°10.244 2°40.338 211.5 13.7 210 12
2003-03-11 08:45:54 51°10.224 2°40.32 211.2 13.7 210 11.9
2003-03-11 08:45:59 51°10.208 2°40.306 211.2 13.7 210 11.8
2003-03-11 08:46:04 51°10.191 2°40.29 211.3 13.7 210 11.8
2003-03-11 08:46:09 51°10.175 2°40.275 211.9 13.7 210 11.7
2003-03-11 08:46:14 51°10.159 2°40.26 211.7 13.6 210 11.6
2003-03-11 08:46:19 51°10.142 2°40.245 211.4 13.6 210 11.5
2003-03-11 08:46:24 51°10.126 2°40.23 211.3 13.7 210 11.4
2003-03-11 08:46:28 51°10.113 2°40.218 211.9 13.7 210 11.3
2003-03-11 08:46:34 51°10.093 2°40.2 212.1 13.7 211 11.3
2003-03-11 08:46:39 51°10.077 2°40.185 211.9 13.7 210 11.2
2003-03-11 08:46:44 51°10.06 2°40.17 211.6 13.6 210 11.1
2003-03-11 08:46:49 51°10.044 2°40.154 211.8 13.7 210 11
2003-03-11 08:46:54 51°10.028 2°40.139 211.9 13.6 210 11
2003-03-11 08:46:59 51°10.011 2°40.124 211.8 13.7 211 10.9
2003-03-11 08:47:04 51°9.995 2°40.108 211.9 13.7 211 10.8
2003-03-11 08:47:08 51°9.982 2°40.096 212.1 13.7 211 10.7
2003-03-11 08:47:14 51°9.962 2°40.077 212.3 13.7 211 10.7
2003-03-11 08:47:19 51°9.946 2°40.061 212.2 13.7 211 10.6
2003-03-11 08:47:24 51°9.93 2°40.046 212.4 13.8 211 10.6
2003-03-11 08:47:28 51°9.917 2°40.033 212.6 13.7 211 10.5
2003-03-11 08:47:34 51°9.897 2°40.014 212 13.7 211 10.4
2003-03-11 08:47:39 51°9.881 2°39.999 212.2 13.7 211 10.3
2003-03-11 08:47:44 51°9.865 2°39.983 212.2 13.7 211 10.3
2003-03-11 08:47:48 51°9.852 2°39.971 212.6 13.7 211 10.3
2003-03-11 08:47:54 51°9.834 2°39.95 216 13.7 213 10.2
2003-03-11 08:47:59 51°9.819 2°39.93 219.9 13.7 217 10.1
2003-03-11 08:48:04 51°9.805 2°39.909 224.5 13.7 221 10.1
2003-03-11 08:48:08 51°9.795 2°39.891 228.2 13.7 225 10
2003-03-11 08:48:14 51°9.781 2°39.863 233.1 13.7 230 10
2003-03-11 08:48:19 51°9.771 2°39.837 238.4 13.7 236 10
2003-03-11 08:48:24 51°9.762 2°39.81 243.1 13.6 240 10
2003-03-11 08:48:28 51°9.756 2°39.788 248.6 13.6 246 10
2003-03-11 08:48:34 51°9.749 2°39.754 253.7 13.7 250 10
2003-03-11 08:48:39 51°9.745 2°39.724 258.7 13.7 255 10
2003-03-11 08:48:44 51°9.742 2°39.695 263.7 13.7 260 10.1
2003-03-11 08:48:48 51°9.741 2°39.671 268.4 13.6 264 10.1
2003-03-11 08:48:54 51°9.741 2°39.635 271.4 13.7 268 10.2
2003-03-11 08:48:59 51°9.742 2°39.604 273.8 13.7 270 10.3
2003-03-11 08:49:04 51°9.743 2°39.574 275.7 13.7 272 10.3
2003-03-11 08:49:09 51°9.745 2°39.543 277.5 13.8 274 10.4
2003-03-11 08:49:14 51°9.748 2°39.513 280.8 13.8 276 10.4
2003-03-11 08:49:19 51°9.752 2°39.483 285.2 13.8 280 10.4
2003-03-11 08:49:24 51°9.757 2°39.454 289.1 13.8 283 10.5
2003-03-11 08:49:28 51°9.762 2°39.43 291.8 13.8 286 10.6
2003-03-11 08:49:34 51°9.769 2°39.394 293.8 13.8 289 10.7
2003-03-11 08:49:39 51°9.776 2°39.366 295.4 13.8 291 10.7
2003-03-11 08:49:44 51°9.783 2°39.338 296.6 13.9 292 10.9
2003-03-11 08:49:48 51°9.788 2°39.315 297.5 13.9 293 10.9
2003-03-11 08:49:54 51°9.798 2°39.282 299.9 13.9 295 11
2003-03-11 08:49:59 51°9.807 2°39.255 301.4 13.9 297 11.1
2003-03-11 08:50:04 51°9.816 2°39.228 303.1 14 298 11.2
2003-03-11 08:50:09 51°9.826 2°39.202 303.6 14 299 11.3
2003-03-11 08:50:14 51°9.836 2°39.175 304.3 14 300 11.5
2003-03-11 08:50:19 51°9.846 2°39.148 304.8 14 300 11.5
2003-03-11 08:50:24 51°9.856 2°39.122 305.2 14 300 11.7
2003-03-11 08:50:28 51°9.863 2°39.101 305.4 14.1 301 11.9
2003-03-11 08:50:34 51°9.874 2°39.069 305.5 14.1 301 12
2003-03-11 08:50:38 51°9.881 2°39.048 305.2 14.1 301 12.2
2003-03-11 08:50:44 51°9.892 2°39.016 305.1 14.1 300 12.4
2003-03-11 08:50:48 51°9.9 2°38.995 305.3 14.1 300 12.6
2003-03-11 08:50:54 51°9.912 2°38.963 305.5 14.1 301 12.7
2003-03-11 08:50:59 51°9.922 2°38.937 305.8 14.1 301 13
2003-03-11 08:51:04 51°9.933 2°38.911 305.8 14.1 301 13.2
2003-03-11 08:51:08 51°9.941 2°38.89 305.6 14.1 301 13.4
2003-03-11 08:51:13 51°9.951 2°38.863 305.5 14.1 301 13.6
2003-03-11 08:51:19 51°9.963 2°38.831 305.6 14.1 301 13.8
2003-03-11 08:51:24 51°9.973 2°38.805 305.6 14.1 301 14.1
2003-03-11 08:51:29 51°9.983 2°38.778 305.5 14.1 301 14.3
2003-03-11 08:51:34 51°9.994 2°38.751 305.4 14.2 302 14.4
2003-03-11 08:51:39 51°10.004 2°38.724 305.5 14.1 301 14.7
2003-03-11 08:51:44 51°10.013 2°38.697 305.7 14.1 301 14.8
2003-03-11 08:51:49 51°10.022 2°38.669 305.8 14.1 301 14.9
2003-03-11 08:51:54 51°10.03 2°38.642 305.8 14 301 15.1
2003-03-11 08:51:59 51°10.04 2°38.616 305.6 14 301 15.2
2003-03-11 08:52:04 51°10.05 2°38.589 305.5 14 301 15.3
2003-03-11 08:52:08 51°10.058 2°38.568 305.5 14 301 15.3
2003-03-11 08:52:14 51°10.07 2°38.535 305.5 14 301 15.4
2003-03-11 08:52:19 51°10.08 2°38.509 305.8 14 302 15.3
2003-03-11 08:52:24 51°10.093 2°38.485 306.1 14 302 15.6
2003-03-11 08:52:28 51°10.103 2°38.466 306.2 14 302 15.9
2003-03-11 08:52:34 51°10.117 2°38.436 306 14 302 15.8
2003-03-11 08:52:39 51°10.127 2°38.41 305.9 14 302 16.1
2003-03-11 08:52:44 51°10.137 2°38.384 305.9 14.1 302 16.1
2003-03-11 08:52:48 51°10.148 2°38.362 306.1 14.9 304 15.8
2003-03-11 08:52:54 51°10.16 2°38.331 306.2 14.8 305 15.7
2003-03-11 08:52:59 51°10.169 2°38.305 306.2 14.2 303 15.9
2003-03-11 08:53:04 51°10.179 2°38.279 305.9 13.9 302 15.9
2003-03-11 08:53:08 51°10.187 2°38.258 305.9 13.9 302 16.3
2003-03-11 08:53:14 51°10.2 2°38.226 305.9 13.9 302 16.3
2003-03-11 08:53:19 51°10.21 2°38.199 303.3 13.9 301 16.3
2003-03-11 08:53:24 51°10.218 2°38.171 298.6 13.8 298 16.4
2003-03-11 08:53:28 51°10.223 2°38.148 293.4 13.7 293 16.4
2003-03-11 08:53:34 51°10.229 2°38.112 290.2 13.6 289 16.5
2003-03-11 08:53:39 51°10.233 2°38.082 287.4 13.6 285 16.5
2003-03-11 08:53:44 51°10.236 2°38.053 282.8 13.6 281 16.5
2003-03-11 08:53:48 51°10.236 2°38.029 277.1 13.5 276 16.4
2003-03-11 08:53:54 51°10.235 2°37.993 272.8 13.5 271 16.8
2003-03-11 08:53:59 51°10.234 2°37.964 269.6 13.5 267 16.7
2003-03-11 08:54:04 51°10.23 2°37.935 264.7 13.5 263 17
2003-03-11 08:54:09 51°10.226 2°37.906 259 13.5 258 17
2003-03-11 08:54:14 51°10.219 2°37.878 254.5 13.5 253 17.1
2003-03-11 08:54:19 51°10.212 2°37.85 251.8 13.5 250 17.1
2003-03-11 08:54:24 51°10.205 2°37.822 249.3 13.6 247 17.1
2003-03-11 08:54:29 51°10.197 2°37.795 247.5 13.6 245 17.3
2003-03-11 08:54:34 51°10.188 2°37.768 245.8 13.7 244 17.3
2003-03-11 08:54:39 51°10.178 2°37.743 241.7 13.6 240 17.3
2003-03-11 08:54:44 51°10.167 2°37.719 237.3 13.6 236 17.3
2003-03-11 08:54:48 51°10.158 2°37.7 234.5 13.7 233 17.5
2003-03-11 08:54:54 51°10.143 2°37.672 232 13.7 231 17
2003-03-11 08:54:59 51°10.131 2°37.649 230.5 13.8 229 17.4
2003-03-11 08:55:04 51°10.118 2°37.628 228.9 13.8 227 17.5
2003-03-11 08:55:08 51°10.107 2°37.61 227.9 13.8 227 17.5
2003-03-11 08:55:14 51°10.091 2°37.584 227.2 13.8 225 17.4
2003-03-11 08:55:19 51°10.078 2°37.563 226.7 13.8 225 17.5
2003-03-11 08:55:24 51°10.064 2°37.542 226.2 13.9 224 17.5
2003-03-11 08:55:28 51°10.053 2°37.525 225.7 13.9 224 17.4
2003-03-11 08:55:34 51°10.036 2°37.5 225.3 13.9 224 17.4
2003-03-11 08:55:39 51°10.022 2°37.479 225.1 13.9 224 17.4
2003-03-11 08:55:44 51°10.008 2°37.458 225.6 13.9 224 17.3
2003-03-11 08:55:48 51°9.997 2°37.441 225.7 13.8 224 17.2
2003-03-11 08:55:54 51°9.981 2°37.416 225.8 13.9 224 17.2
2003-03-11 08:55:59 51°9.967 2°37.395 225.7 13.8 224 17.2
2003-03-11 08:56:04 51°9.953 2°37.374 225.3 13.8 224 17.2
2003-03-11 08:56:09 51°9.939 2°37.353 225.5 13.7 224 17.1
2003-03-11 08:56:14 51°9.926 2°37.332 225.7 13.7 224 17.2
2003-03-11 08:56:19 51°9.912 2°37.311 225.5 13.7 224 17
2003-03-11 08:56:24 51°9.898 2°37.29 225.5 13.7 224 17
2003-03-11 08:56:28 51°9.887 2°37.273 225.7 13.8 224 17
2003-03-11 08:56:34 51°9.871 2°37.248 225.7 13.8 224 16.9
2003-03-11 08:56:39 51°9.857 2°37.227 225.7 13.8 224 16.9
2003-03-11 08:56:44 51°9.843 2°37.206 225.9 13.8 224 16.8
2003-03-11 08:56:48 51°9.833 2°37.188 225.9 13.8 224 16.8
2003-03-11 08:56:54 51°9.816 2°37.163 225.7 13.8 224 16.7
2003-03-11 08:56:59 51°9.802 2°37.142 225.6 13.8 224 16.7
2003-03-11 08:57:04 51°9.789 2°37.121 225.9 13.7 224 16.7
2003-03-11 08:57:08 51°9.778 2°37.104 225.8 13.8 224 16.7
2003-03-11 08:57:14 51°9.761 2°37.078 225.7 13.8 224 16.6
2003-03-11 08:57:19 51°9.747 2°37.057 225.7 13.9 224 16.5
2003-03-11 08:57:24 51°9.733 2°37.036 225.5 13.9 224 16.5
2003-03-11 08:57:28 51°9.722 2°37.019 225.8 13.9 224 16.4
2003-03-11 08:57:34 51°9.706 2°36.993 226 13.8 225 16.3
2003-03-11 08:57:39 51°9.692 2°36.973 225.7 13.8 224 16
2003-03-11 08:57:44 51°9.679 2°36.951 225.8 13.8 224 16.1
2003-03-11 08:57:49 51°9.665 2°36.93 226.1 13.8 224 16
2003-03-11 08:57:54 51°9.651 2°36.908 226.1 13.8 225 16.1
2003-03-11 08:57:59 51°9.638 2°36.887 225.9 13.8 225 16.1
2003-03-11 08:58:04 51°9.624 2°36.866 225.7 13.8 224 15.6
2003-03-11 08:58:08 51°9.613 2°36.849 225.9 13.8 224 15.7
2003-03-11 08:58:14 51°9.597 2°36.823 226.2 13.9 225 15.8
2003-03-11 08:58:19 51°9.583 2°36.801 226 13.9 225 15.4
2003-03-11 08:58:24 51°9.569 2°36.78 225.9 13.9 225 15.7
2003-03-11 08:58:28 51°9.559 2°36.763 225.9 13.8 224 15.8
2003-03-11 08:58:34 51°9.543 2°36.737 226 13.8 225 15.6
2003-03-11 08:58:38 51°9.532 2°36.719 226 13.9 225 15.4
2003-03-11 08:58:44 51°9.515 2°36.694 225.8 13.9 225 15.6
2003-03-11 08:58:48 51°9.504 2°36.676 226.1 13.9 225 15.6
2003-03-11 08:58:54 51°9.488 2°36.65 226.3 13.9 225 15.5
2003-03-11 08:58:59 51°9.474 2°36.629 226 14 225 15.6
2003-03-11 08:59:04 51°9.461 2°36.607 225.7 14 225 15.5
2003-03-11 08:59:09 51°9.447 2°36.586 226 14 225 15.7
2003-03-11 08:59:14 51°9.433 2°36.564 226.2 14 225 15.6
2003-03-11 08:59:18 51°9.422 2°36.547 226.2 14 225 15.6
2003-03-11 08:59:24 51°9.405 2°36.521 225.7 14 225 15.6
2003-03-11 08:59:28 51°9.394 2°36.504 225.7 14 225 15.7
2003-03-11 08:59:34 51°9.378 2°36.478 226 14 225 15.7
2003-03-11 08:59:39 51°9.364 2°36.456 226 13.9 225 15.8
2003-03-11 08:59:44 51°9.351 2°36.435 225.9 13.8 225 15.8
2003-03-11 08:59:49 51°9.337 2°36.413 226 13.8 225 15.7
2003-03-11 08:59:54 51°9.323 2°36.391 226.2 13.8 226 15.8
2003-03-11 08:59:59 51°9.309 2°36.37 226 13.9 225 15.7
2003-03-11 09:00:04 51°9.295 2°36.348 226 13.9 225 15.7
2003-03-11 09:00:08 51°9.284 2°36.33 225.9 13.9 225 15.7
2003-03-11 09:00:14 51°9.267 2°36.305 225.8 14 225 15.7
2003-03-11 09:00:19 51°9.253 2°36.282 226 14 225 15.8
2003-03-11 09:00:24 51°9.239 2°36.259 226.3 14 225 15.7
2003-03-11 09:00:28 51°9.228 2°36.241 226.6 14 226 15.7
2003-03-11 09:00:34 51°9.211 2°36.215 226.1 13.9 225 15.5
2003-03-11 09:00:39 51°9.198 2°36.193 226.2 13.9 226 15.6
2003-03-11 09:00:43 51°9.187 2°36.175 226.4 14 225 15.5
2003-03-11 09:00:48 51°9.173 2°36.153 226.4 14 225 15.4
2003-03-11 09:00:54 51°9.157 2°36.126 226.6 14 225 15.4
2003-03-11 09:00:58 51°9.146 2°36.108 227.2 14 226 15.3
2003-03-11 09:01:04 51°9.131 2°36.081 230.1 14 228 15.4
2003-03-11 09:01:08 51°9.122 2°36.061 234.5 13.9 231 15.4
2003-03-11 09:01:14 51°9.11 2°36.03 239.5 13.9 235 15.3
2003-03-11 09:01:18 51°9.103 2°36.008 244.6 13.8 241 15.3
2003-03-11 09:01:24 51°9.095 2°35.975 249.7 13.8 246 15.3
2003-03-11 09:01:28 51°9.09 2°35.952 255 13.8 250 15.4
2003-03-11 09:01:34 51°9.085 2°35.917 259.4 13.8 256 15.5
2003-03-11 09:01:39 51°9.083 2°35.887 265.8 13.7 261 15.7
2003-03-11 09:01:44 51°9.083 2°35.857 271.4 13.8 266 15.8
2003-03-11 09:01:48 51°9.084 2°35.833 277 13.8 271 15.9
2003-03-11 09:01:54 51°9.087 2°35.797 281.3 13.7 277 16
2003-03-11 09:01:59 51°9.092 2°35.768 288 13.7 282 15.9
2003-03-11 09:02:04 51°9.099 2°35.739 293.5 13.7 286 16
2003-03-11 09:02:08 51°9.106 2°35.718 298 13.7 293 15.9
2003-03-11 09:02:13 51°9.115 2°35.691 304.7 13.7 298 15.9
2003-03-11 09:02:19 51°9.129 2°35.662 309.3 13.7 303 16
2003-03-11 09:02:24 51°9.142 2°35.639 315 13.7 309 16.2
2003-03-11 09:02:28 51°9.153 2°35.623 321.6 13.7 313 16.2
2003-03-11 09:02:34 51°9.171 2°35.601 327.3 13.7 320 16.4
2003-03-11 09:02:39 51°9.187 2°35.585 332.9 13.7 325 16.4
2003-03-11 09:02:44 51°9.204 2°35.572 337.1 13.6 330 16.1
2003-03-11 09:02:48 51°9.218 2°35.563 342.9 13.6 336 16.4
2003-03-11 09:02:54 51°9.239 2°35.552 349.3 13.6 340 16.7
2003-03-11 09:02:59 51°9.258 2°35.546 353.6 13.5 346 16.4
2003-03-11 09:03:04 51°9.276 2°35.541 355.2 13.6 349 16.4
2003-03-11 09:03:08 51°9.291 2°35.536 355.2 13.7 349 16
2003-03-11 09:03:14 51°9.314 2°35.529 355 13.8 349 16.2